sensor_id;sensor_type;location;lat;lon;timestamp;pressure;altitude;pressure_sealevel;temperature;humidity
43934;BME280;59081;42.706;23.306;2023-07-16T00:00:12;95388.81;;;24.03;73.29
43934;BME280;59081;42.706;23.306;2023-07-16T00:02:38;95334.31;;;23.65;72.84
43934;BME280;59081;42.706;23.306;2023-07-16T00:05:04;95327.19;;;23.58;72.45
43934;BME280;59081;42.706;23.306;2023-07-16T00:07:30;95316.47;;;23.51;72.29
43934;BME280;59081;42.706;23.306;2023-07-16T00:09:55;95332.28;;;23.65;72.29
43934;BME280;59081;42.706;23.306;2023-07-16T00:12:21;95326.47;;;23.52;72.96
43934;BME280;59081;42.706;23.306;2023-07-16T00:14:47;95307.38;;;23.28;73.18
43934;BME280;59081;42.706;23.306;2023-07-16T00:17:13;95374.38;;;23.82;73.06
43934;BME280;59081;42.706;23.306;2023-07-16T00:19:38;95313.16;;;23.47;72.67
43934;BME280;59081;42.706;23.306;2023-07-16T00:22:04;95392.13;;;24.07;72.31
43934;BME280;59081;42.706;23.306;2023-07-16T00:24:29;95395.75;;;24.02;72.72
43934;BME280;59081;42.706;23.306;2023-07-16T00:26:55;95393.19;;;23.98;71.92
43934;BME280;59081;42.706;23.306;2023-07-16T00:29:20;95402.31;;;24.10;72.06
43934;BME280;59081;42.706;23.306;2023-07-16T00:31:46;95373.72;;;24.06;71.56
43934;BME280;59081;42.706;23.306;2023-07-16T00:34:11;95320.28;;;23.59;71.90
43934;BME280;59081;42.706;23.306;2023-07-16T00:36:38;95309.84;;;23.48;71.22
43934;BME280;59081;42.706;23.306;2023-07-16T00:39:03;95430.13;;;24.24;71.65
43934;BME280;59081;42.706;23.306;2023-07-16T00:41:29;95395.69;;;24.07;71.67
43934;BME280;59081;42.706;23.306;2023-07-16T00:43:54;95238.81;;;23.01;71.57
43934;BME280;59081;42.706;23.306;2023-07-16T00:46:20;95381.53;;;23.83;72.19
43934;BME280;59081;42.706;23.306;2023-07-16T00:48:46;95301.00;;;23.27;72.16
43934;BME280;59081;42.706;23.306;2023-07-16T00:51:12;95330.50;;;23.56;71.84
43934;BME280;59081;42.706;23.306;2023-07-16T00:53:41;95401.56;;;24.09;71.42
43934;BME280;59081;42.706;23.306;2023-07-16T00:56:08;95363.34;;;23.89;71.45
43934;BME280;59081;42.706;23.306;2023-07-16T00:58:34;95359.28;;;23.79;71.32
43934;BME280;59081;42.706;23.306;2023-07-16T01:00:59;95351.19;;;23.65;72.11
43934;BME280;59081;42.706;23.306;2023-07-16T01:03:25;95290.78;;;23.24;71.95
43934;BME280;59081;42.706;23.306;2023-07-16T01:08:52;95275.00;;;23.16;72.18
43934;BME280;59081;42.706;23.306;2023-07-16T01:11:20;95335.66;;;23.47;72.12
43934;BME280;59081;42.706;23.306;2023-07-16T01:13:47;95326.47;;;23.46;71.88
43934;BME280;59081;42.706;23.306;2023-07-16T01:16:22;95422.09;;;23.99;72.46
43934;BME280;59081;42.706;23.306;2023-07-16T01:18:48;95336.72;;;23.38;72.38
43934;BME280;59081;42.706;23.306;2023-07-16T01:21:15;95316.06;;;23.24;72.32
43934;BME280;59081;42.706;23.306;2023-07-16T01:24:03;95250.88;;;22.79;72.82
43934;BME280;59081;42.706;23.306;2023-07-16T01:29:56;95323.97;;;23.37;72.49
43934;BME280;59081;42.706;23.306;2023-07-16T01:32:24;95321.94;;;23.26;72.24
43934;BME280;59081;42.706;23.306;2023-07-16T01:34:52;95310.50;;;23.19;72.54
43934;BME280;59081;42.706;23.306;2023-07-16T01:37:18;95344.88;;;23.42;72.63
43934;BME280;59081;42.706;23.306;2023-07-16T01:39:44;95423.09;;;24.01;72.37
43934;BME280;59081;42.706;23.306;2023-07-16T01:42:09;95295.97;;;23.09;72.47
43934;BME280;59081;42.706;23.306;2023-07-16T01:44:35;95256.50;;;22.74;73.08
43934;BME280;59081;42.706;23.306;2023-07-16T01:49:34;95346.19;;;23.35;73.07
43934;BME280;59081;42.706;23.306;2023-07-16T01:52:02;95430.09;;;23.89;72.79
43934;BME280;59081;42.706;23.306;2023-07-16T01:54:30;95352.38;;;23.22;72.70
43934;BME280;59081;42.706;23.306;2023-07-16T01:56:56;95408.69;;;23.69;72.65
43934;BME280;59081;42.706;23.306;2023-07-16T01:59:21;95343.47;;;23.18;72.72
43934;BME280;59081;42.706;23.306;2023-07-16T02:01:50;95342.72;;;23.07;73.41
43934;BME280;59081;42.706;23.306;2023-07-16T02:04:15;95388.81;;;23.45;73.15
43934;BME280;59081;42.706;23.306;2023-07-16T02:06:43;95296.31;;;22.72;73.01
43934;BME280;59081;42.706;23.306;2023-07-16T02:09:09;95411.78;;;23.60;73.36
43934;BME280;59081;42.706;23.306;2023-07-16T02:11:35;95381.97;;;23.35;72.83
43934;BME280;59081;42.706;23.306;2023-07-16T02:14:00;95280.31;;;22.50;73.31
43934;BME280;59081;42.706;23.306;2023-07-16T02:16:26;95314.72;;;22.68;73.54
43934;BME280;59081;42.706;23.306;2023-07-16T02:18:51;95364.47;;;22.95;73.71
43934;BME280;59081;42.706;23.306;2023-07-16T02:21:17;95399.13;;;23.25;73.41
43934;BME280;59081;42.706;23.306;2023-07-16T02:23:42;95327.22;;;22.67;73.51
43934;BME280;59081;42.706;23.306;2023-07-16T02:26:08;95316.78;;;22.62;73.52
43934;BME280;59081;42.706;23.306;2023-07-16T02:28:33;95266.56;;;22.30;72.92
43934;BME280;59081;42.706;23.306;2023-07-16T02:30:59;95259.16;;;22.27;72.89
43934;BME280;59081;42.706;23.306;2023-07-16T02:33:24;95335.91;;;22.80;73.60
43934;BME280;59081;42.706;23.306;2023-07-16T02:35:50;95346.13;;;22.55;74.40
43934;BME280;59081;42.706;23.306;2023-07-16T02:38:17;95312.22;;;22.25;74.67
43934;BME280;59081;42.706;23.306;2023-07-16T02:40:46;95325.22;;;22.39;74.86
43934;BME280;59081;42.706;23.306;2023-07-16T02:43:12;95370.13;;;22.78;75.13
43934;BME280;59081;42.706;23.306;2023-07-16T02:45:38;95285.97;;;22.11;75.12
43934;BME280;59081;42.706;23.306;2023-07-16T02:48:04;95386.69;;;22.87;74.86
43934;BME280;59081;42.706;23.306;2023-07-16T02:50:33;95436.19;;;23.18;74.92
43934;BME280;59081;42.706;23.306;2023-07-16T02:52:58;95303.53;;;22.23;74.98
43934;BME280;59081;42.706;23.306;2023-07-16T02:55:23;95379.28;;;22.73;75.08
43934;BME280;59081;42.706;23.306;2023-07-16T02:57:49;95356.59;;;22.60;75.22
43934;BME280;59081;42.706;23.306;2023-07-16T03:00:15;95422.69;;;23.00;75.32
43934;BME280;59081;42.706;23.306;2023-07-16T03:02:40;95303.31;;;22.15;75.26
43934;BME280;59081;42.706;23.306;2023-07-16T03:05:06;95352.75;;;22.41;75.45
43934;BME280;59081;42.706;23.306;2023-07-16T03:07:31;95382.63;;;22.61;75.72
43934;BME280;59081;42.706;23.306;2023-07-16T03:09:57;95348.41;;;22.34;75.99
43934;BME280;59081;42.706;23.306;2023-07-16T03:12:22;95288.22;;;22.02;75.62
43934;BME280;59081;42.706;23.306;2023-07-16T03:14:49;95309.91;;;22.35;74.92
43934;BME280;59081;42.706;23.306;2023-07-16T03:17:15;95309.41;;;22.42;74.74
43934;BME280;59081;42.706;23.306;2023-07-16T03:19:43;95383.38;;;22.78;75.35
43934;BME280;59081;42.706;23.306;2023-07-16T03:22:09;95333.38;;;22.37;75.19
43934;BME280;59081;42.706;23.306;2023-07-16T03:24:34;95441.31;;;23.09;76.08
43934;BME280;59081;42.706;23.306;2023-07-16T03:27:00;95358.13;;;22.44;76.21
43934;BME280;59081;42.706;23.306;2023-07-16T03:29:25;95409.19;;;22.82;75.97
43934;BME280;59081;42.706;23.306;2023-07-16T03:31:51;95454.84;;;23.10;76.08
43934;BME280;59081;42.706;23.306;2023-07-16T03:34:16;95381.34;;;22.50;76.41
43934;BME280;59081;42.706;23.306;2023-07-16T03:36:42;95341.53;;;22.24;76.38
43934;BME280;59081;42.706;23.306;2023-07-16T03:39:07;95392.56;;;22.62;76.34
43934;BME280;59081;42.706;23.306;2023-07-16T03:41:33;95471.69;;;23.10;75.88
43934;BME280;59081;42.706;23.306;2023-07-16T03:43:58;95407.63;;;22.58;75.87
43934;BME280;59081;42.706;23.306;2023-07-16T03:46:23;95374.72;;;22.31;76.17
43934;BME280;59081;42.706;23.306;2023-07-16T03:48:49;95369.84;;;22.09;76.78
43934;BME280;59081;42.706;23.306;2023-07-16T03:51:14;95375.19;;;22.02;77.46
43934;BME280;59081;42.706;23.306;2023-07-16T03:53:40;95384.91;;;22.29;77.00
43934;BME280;59081;42.706;23.306;2023-07-16T03:56:05;95379.06;;;22.27;76.53
43934;BME280;59081;42.706;23.306;2023-07-16T03:58:31;95444.38;;;22.55;77.02
43934;BME280;59081;42.706;23.306;2023-07-16T04:00:56;95390.25;;;22.21;77.06
43934;BME280;59081;42.706;23.306;2023-07-16T04:03:24;95442.34;;;22.50;76.98
43934;BME280;59081;42.706;23.306;2023-07-16T04:05:50;95343.53;;;21.84;77.07
43934;BME280;59081;42.706;23.306;2023-07-16T04:08:15;95394.84;;;22.13;77.02
43934;BME280;59081;42.706;23.306;2023-07-16T04:10:41;95395.09;;;22.04;77.48
43934;BME280;59081;42.706;23.306;2023-07-16T04:13:06;95323.59;;;21.66;77.88
43934;BME280;59081;42.706;23.306;2023-07-16T04:15:32;95286.84;;;21.36;77.91
43934;BME280;59081;42.706;23.306;2023-07-16T04:17:57;95410.19;;;22.29;77.59
43934;BME280;59081;42.706;23.306;2023-07-16T04:20:23;95328.47;;;21.76;77.16
43934;BME280;59081;42.706;23.306;2023-07-16T04:22:48;95274.38;;;21.48;76.49
43934;BME280;59081;42.706;23.306;2023-07-16T04:25:14;95419.13;;;22.44;77.31
43934;BME280;59081;42.706;23.306;2023-07-16T04:27:41;95361.66;;;21.95;77.50
43934;BME280;59081;42.706;23.306;2023-07-16T04:30:08;95314.44;;;21.65;76.41
43934;BME280;59081;42.706;23.306;2023-07-16T04:32:34;95464.56;;;22.65;77.05
43934;BME280;59081;42.706;23.306;2023-07-16T04:34:59;95387.97;;;22.19;76.86
43934;BME280;59081;42.706;23.306;2023-07-16T04:37:26;95339.97;;;21.95;76.73
43934;BME280;59081;42.706;23.306;2023-07-16T04:39:51;95448.44;;;22.71;76.94
43934;BME280;59081;42.706;23.306;2023-07-16T04:42:17;95417.56;;;22.43;76.26
43934;BME280;59081;42.706;23.306;2023-07-16T04:44:42;95404.81;;;22.25;77.12
43934;BME280;59081;42.706;23.306;2023-07-16T04:47:08;95463.00;;;22.75;76.67
43934;BME280;59081;42.706;23.306;2023-07-16T04:49:36;95409.41;;;22.39;76.02
43934;BME280;59081;42.706;23.306;2023-07-16T04:52:02;95382.09;;;22.23;75.87
43934;BME280;59081;42.706;23.306;2023-07-16T04:54:28;95496.22;;;23.04;75.89
43934;BME280;59081;42.706;23.306;2023-07-16T04:56:53;95438.50;;;22.70;76.20
43934;BME280;59081;42.706;23.306;2023-07-16T04:59:21;95395.41;;;22.50;75.55
43934;BME280;59081;42.706;23.306;2023-07-16T05:01:47;95484.44;;;23.22;74.90
43934;BME280;59081;42.706;23.306;2023-07-16T05:04:12;95502.06;;;23.29;74.59
43934;BME280;59081;42.706;23.306;2023-07-16T05:06:38;95434.94;;;22.91;75.10
43934;BME280;59081;42.706;23.306;2023-07-16T05:09:03;95391.03;;;22.88;73.39
43934;BME280;59081;42.706;23.306;2023-07-16T05:11:29;95458.06;;;23.48;72.56
43934;BME280;59081;42.706;23.306;2023-07-16T05:13:54;95396.59;;;23.11;72.34
43934;BME280;59081;42.706;23.306;2023-07-16T05:16:21;95415.22;;;23.25;72.34
43934;BME280;59081;42.706;23.306;2023-07-16T05:18:46;95436.84;;;23.64;71.69
43934;BME280;59081;42.706;23.306;2023-07-16T05:21:12;95452.19;;;23.63;71.40
43934;BME280;59081;42.706;23.306;2023-07-16T05:23:38;95422.81;;;23.52;70.78
43934;BME280;59081;42.706;23.306;2023-07-16T05:26:03;95403.13;;;23.47;70.36
43934;BME280;59081;42.706;23.306;2023-07-16T05:28:29;95454.41;;;23.81;70.31
43934;BME280;59081;42.706;23.306;2023-07-16T05:31:01;95446.22;;;23.77;70.84
43934;BME280;59081;42.706;23.306;2023-07-16T05:33:27;95418.69;;;23.65;70.56
43934;BME280;59081;42.706;23.306;2023-07-16T05:35:52;95479.31;;;24.12;69.74
43934;BME280;59081;42.706;23.306;2023-07-16T05:38:18;95368.94;;;23.37;69.53
43934;BME280;59081;42.706;23.306;2023-07-16T05:40:44;95381.94;;;23.40;68.88
43934;BME280;59081;42.706;23.306;2023-07-16T05:43:09;95473.75;;;24.07;69.24
43934;BME280;59081;42.706;23.306;2023-07-16T05:45:35;95403.16;;;23.52;68.98
43934;BME280;59081;42.706;23.306;2023-07-16T05:48:00;95507.66;;;24.25;68.74
43934;BME280;59081;42.706;23.306;2023-07-16T05:50:26;95413.75;;;23.82;68.52
43934;BME280;59081;42.706;23.306;2023-07-16T05:52:51;95426.44;;;24.00;67.30
43934;BME280;59081;42.706;23.306;2023-07-16T05:55:17;95404.44;;;24.04;66.85
43934;BME280;59081;42.706;23.306;2023-07-16T05:57:42;95425.75;;;24.35;67.25
43934;BME280;59081;42.706;23.306;2023-07-16T06:00:08;95351.75;;;23.99;66.44
43934;BME280;59081;42.706;23.306;2023-07-16T06:02:34;95447.28;;;24.62;65.71
43934;BME280;59081;42.706;23.306;2023-07-16T06:05:00;95450.06;;;24.68;65.46
43934;BME280;59081;42.706;23.306;2023-07-16T06:07:25;95469.44;;;24.77;65.18
43934;BME280;59081;42.706;23.306;2023-07-16T06:09:51;95499.72;;;25.06;66.30
43934;BME280;59081;42.706;23.306;2023-07-16T06:12:17;95472.47;;;24.84;66.07
43934;BME280;59081;42.706;23.306;2023-07-16T06:14:42;95419.88;;;24.62;65.42
43934;BME280;59081;42.706;23.306;2023-07-16T06:17:07;95455.72;;;24.97;65.53
43934;BME280;59081;42.706;23.306;2023-07-16T06:19:34;95482.53;;;25.10;64.36
43934;BME280;59081;42.706;23.306;2023-07-16T06:21:59;95439.81;;;25.00;63.90
43934;BME280;59081;42.706;23.306;2023-07-16T06:24:25;95456.88;;;25.13;63.38
43934;BME280;59081;42.706;23.306;2023-07-16T06:26:50;95448.94;;;25.12;63.75
43934;BME280;59081;42.706;23.306;2023-07-16T06:29:15;95458.66;;;25.41;63.06
43934;BME280;59081;42.706;23.306;2023-07-16T06:31:43;95466.88;;;25.63;63.22
43934;BME280;59081;42.706;23.306;2023-07-16T06:34:09;95440.44;;;25.66;62.04
43934;BME280;59081;42.706;23.306;2023-07-16T06:36:35;95357.91;;;25.17;61.94
43934;BME280;59081;42.706;23.306;2023-07-16T06:39:00;95478.91;;;26.31;61.09
43934;BME280;59081;42.706;23.306;2023-07-16T06:41:26;95458.38;;;26.30;60.39
43934;BME280;59081;42.706;23.306;2023-07-16T06:43:51;95434.91;;;26.17;59.96
43934;BME280;59081;42.706;23.306;2023-07-16T06:46:16;95432.41;;;25.94;60.20
43934;BME280;59081;42.706;23.306;2023-07-16T06:48:42;95399.00;;;25.80;60.41
43934;BME280;59081;42.706;23.306;2023-07-16T06:51:07;95388.25;;;25.78;61.14
43934;BME280;59081;42.706;23.306;2023-07-16T06:53:33;95425.31;;;26.07;60.80
43934;BME280;59081;42.706;23.306;2023-07-16T06:55:58;95422.47;;;25.88;60.25
43934;BME280;59081;42.706;23.306;2023-07-16T06:58:33;95450.94;;;26.27;60.30
43934;BME280;59081;42.706;23.306;2023-07-16T07:00:59;95407.97;;;26.16;59.12
43934;BME280;59081;42.706;23.306;2023-07-16T07:03:24;95482.81;;;26.79;59.27
43934;BME280;59081;42.706;23.306;2023-07-16T07:05:50;95392.72;;;26.24;59.05
43934;BME280;59081;42.706;23.306;2023-07-16T07:08:15;95391.03;;;26.34;57.52
43934;BME280;59081;42.706;23.306;2023-07-16T07:10:40;95429.44;;;26.75;58.28
43934;BME280;59081;42.706;23.306;2023-07-16T07:13:06;95407.59;;;26.76;57.67
43934;BME280;59081;42.706;23.306;2023-07-16T07:15:32;95439.78;;;26.86;56.79
43934;BME280;59081;42.706;23.306;2023-07-16T07:17:57;95399.66;;;26.74;56.38
43934;BME280;59081;42.706;23.306;2023-07-16T07:20:23;95391.97;;;26.88;56.43
43934;BME280;59081;42.706;23.306;2023-07-16T07:22:48;95416.81;;;27.08;55.53
43934;BME280;59081;42.706;23.306;2023-07-16T07:25:14;95436.00;;;27.15;55.12
43934;BME280;59081;42.706;23.306;2023-07-16T07:27:39;95361.19;;;26.39;56.15
43934;BME280;59081;42.706;23.306;2023-07-16T07:30:05;95445.13;;;26.89;55.46
43934;BME280;59081;42.706;23.306;2023-07-16T07:32:31;95417.91;;;27.05;56.82
43934;BME280;59081;42.706;23.306;2023-07-16T07:34:56;95428.94;;;27.35;54.86
43934;BME280;59081;42.706;23.306;2023-07-16T07:37:21;95420.00;;;27.31;54.02
43934;BME280;59081;42.706;23.306;2023-07-16T07:39:52;95341.88;;;27.01;54.18
43934;BME280;59081;42.706;23.306;2023-07-16T07:42:17;95439.31;;;27.59;54.80
43934;BME280;59081;42.706;23.306;2023-07-16T07:44:43;95394.56;;;27.57;53.70
43934;BME280;59081;42.706;23.306;2023-07-16T07:47:08;95384.00;;;27.58;54.28
43934;BME280;59081;42.706;23.306;2023-07-16T07:49:34;95444.47;;;28.07;53.43
43934;BME280;59081;42.706;23.306;2023-07-16T07:52:00;95402.47;;;27.98;52.82
43934;BME280;59081;42.706;23.306;2023-07-16T07:54:25;95429.16;;;28.50;51.82
43934;BME280;59081;42.706;23.306;2023-07-16T07:56:51;95463.25;;;28.92;51.09
43934;BME280;59081;42.706;23.306;2023-07-16T07:59:16;95443.31;;;28.84;50.58
43934;BME280;59081;42.706;23.306;2023-07-16T08:01:42;95388.09;;;28.64;50.22
43934;BME280;59081;42.706;23.306;2023-07-16T08:04:07;95397.06;;;28.76;50.51
43934;BME280;59081;42.706;23.306;2023-07-16T08:06:33;95419.44;;;29.00;49.90
43934;BME280;59081;42.706;23.306;2023-07-16T08:08:58;95401.09;;;28.60;49.70
43934;BME280;59081;42.706;23.306;2023-07-16T08:11:23;95444.41;;;28.81;50.06
43934;BME280;59081;42.706;23.306;2023-07-16T08:13:49;95449.06;;;28.79;50.35
43934;BME280;59081;42.706;23.306;2023-07-16T08:16:14;95419.75;;;28.89;50.26
43934;BME280;59081;42.706;23.306;2023-07-16T08:18:40;95389.09;;;29.08;49.24
43934;BME280;59081;42.706;23.306;2023-07-16T08:21:05;95392.94;;;29.19;49.03
43934;BME280;59081;42.706;23.306;2023-07-16T08:23:31;95402.03;;;29.46;48.60
43934;BME280;59081;42.706;23.306;2023-07-16T08:25:57;95403.34;;;29.44;48.36
43934;BME280;59081;42.706;23.306;2023-07-16T08:28:22;95426.25;;;29.75;47.78
43934;BME280;59081;42.706;23.306;2023-07-16T08:30:48;95435.56;;;29.83;48.13
43934;BME280;59081;42.706;23.306;2023-07-16T08:33:14;95453.16;;;29.82;47.64
43934;BME280;59081;42.706;23.306;2023-07-16T08:35:41;95454.31;;;29.86;47.70
43934;BME280;59081;42.706;23.306;2023-07-16T08:38:06;95404.09;;;29.45;48.79
43934;BME280;59081;42.706;23.306;2023-07-16T08:40:38;95431.47;;;29.63;48.19
43934;BME280;59081;42.706;23.306;2023-07-16T08:43:05;95449.00;;;29.83;47.89
43934;BME280;59081;42.706;23.306;2023-07-16T08:45:35;95501.44;;;30.46;47.63
43934;BME280;59081;42.706;23.306;2023-07-16T08:48:05;95448.91;;;30.39;46.65
43934;BME280;59081;42.706;23.306;2023-07-16T08:50:32;95397.41;;;29.99;46.90
43934;BME280;59081;42.706;23.306;2023-07-16T08:52:59;95373.38;;;29.64;46.85
43934;BME280;59081;42.706;23.306;2023-07-16T08:55:25;95453.03;;;30.31;46.74
43934;BME280;59081;42.706;23.306;2023-07-16T08:57:51;95460.06;;;30.37;46.50
43934;BME280;59081;42.706;23.306;2023-07-16T09:00:17;95475.31;;;30.55;47.54
43934;BME280;59081;42.706;23.306;2023-07-16T09:02:43;95420.25;;;30.22;47.08
43934;BME280;59081;42.706;23.306;2023-07-16T09:05:09;95403.78;;;30.28;45.70
43934;BME280;59081;42.706;23.306;2023-07-16T09:07:35;95385.19;;;30.20;46.36
43934;BME280;59081;42.706;23.306;2023-07-16T09:10:03;95493.81;;;30.92;45.90
43934;BME280;59081;42.706;23.306;2023-07-16T09:12:28;95374.94;;;30.09;45.20
43934;BME280;59081;42.706;23.306;2023-07-16T09:14:55;95427.34;;;30.52;46.10
43934;BME280;59081;42.706;23.306;2023-07-16T09:17:24;95482.81;;;30.96;45.41
43934;BME280;59081;42.706;23.306;2023-07-16T09:19:52;95406.94;;;30.68;45.59
43934;BME280;59081;42.706;23.306;2023-07-16T09:22:19;95430.66;;;31.01;44.65
43934;BME280;59081;42.706;23.306;2023-07-16T09:24:46;95372.75;;;30.53;44.59
43934;BME280;59081;42.706;23.306;2023-07-16T09:27:12;95369.78;;;30.66;45.51
43934;BME280;59081;42.706;23.306;2023-07-16T09:29:38;95429.34;;;31.02;45.97
43934;BME280;59081;42.706;23.306;2023-07-16T09:32:04;95388.38;;;30.90;45.20
43934;BME280;59081;42.706;23.306;2023-07-16T09:34:31;95439.81;;;31.15;44.95
43934;BME280;59081;42.706;23.306;2023-07-16T09:36:57;95411.56;;;31.32;43.89
43934;BME280;59081;42.706;23.306;2023-07-16T09:39:25;95440.72;;;31.86;44.18
43934;BME280;59081;42.706;23.306;2023-07-16T09:41:51;95416.84;;;31.51;43.08
43934;BME280;59081;42.706;23.306;2023-07-16T09:44:17;95402.59;;;31.36;43.68
43934;BME280;59081;42.706;23.306;2023-07-16T09:46:43;95414.75;;;31.67;42.89
43934;BME280;59081;42.706;23.306;2023-07-16T09:49:09;95379.28;;;31.37;42.76
43934;BME280;59081;42.706;23.306;2023-07-16T09:51:38;95468.06;;;31.59;43.42
43934;BME280;59081;42.706;23.306;2023-07-16T09:54:05;95417.22;;;31.40;43.20
43934;BME280;59081;42.706;23.306;2023-07-16T09:56:36;95374.75;;;31.19;43.48
43934;BME280;59081;42.706;23.306;2023-07-16T09:59:07;95360.28;;;31.40;44.45
43934;BME280;59081;42.706;23.306;2023-07-16T10:01:36;95332.47;;;31.16;43.48
43934;BME280;59081;42.706;23.306;2023-07-16T10:04:17;95444.78;;;32.23;43.38
43934;BME280;59081;42.706;23.306;2023-07-16T10:06:53;95456.47;;;32.50;41.88
43934;BME280;59081;42.706;23.306;2023-07-16T10:09:35;95359.28;;;31.83;41.73
43934;BME280;59081;42.706;23.306;2023-07-16T10:12:27;95452.66;;;32.55;42.67
43934;BME280;59081;42.706;23.306;2023-07-16T10:14:55;95352.69;;;32.21;41.66
43934;BME280;59081;42.706;23.306;2023-07-16T10:17:25;95375.16;;;32.74;40.08
43934;BME280;59081;42.706;23.306;2023-07-16T10:20:09;95374.81;;;32.95;40.02
43934;BME280;59081;42.706;23.306;2023-07-16T10:22:37;95373.03;;;33.32;39.21
43934;BME280;59081;42.706;23.306;2023-07-16T10:25:05;95365.78;;;33.31;39.06
43934;BME280;59081;42.706;23.306;2023-07-16T10:27:33;95370.44;;;33.61;38.63
43934;BME280;59081;42.706;23.306;2023-07-16T10:30:00;95393.25;;;34.03;38.49
43934;BME280;59081;42.706;23.306;2023-07-16T10:32:29;95416.69;;;34.36;39.07
43934;BME280;59081;42.706;23.306;2023-07-16T10:34:55;95390.78;;;34.16;38.23
43934;BME280;59081;42.706;23.306;2023-07-16T10:37:21;95369.09;;;34.31;37.36
43934;BME280;59081;42.706;23.306;2023-07-16T10:39:48;95434.34;;;34.42;37.37
43934;BME280;59081;42.706;23.306;2023-07-16T10:42:16;95330.31;;;33.41;37.65
43934;BME280;59081;42.706;23.306;2023-07-16T10:44:41;95327.03;;;32.78;39.22
43934;BME280;59081;42.706;23.306;2023-07-16T10:47:07;95384.31;;;32.97;39.40
43934;BME280;59081;42.706;23.306;2023-07-16T10:49:34;95341.84;;;33.26;37.87
43934;BME280;59081;42.706;23.306;2023-07-16T10:52:00;95404.59;;;33.93;38.61
43934;BME280;59081;42.706;23.306;2023-07-16T10:54:26;95310.06;;;33.81;36.94
43934;BME280;59081;42.706;23.306;2023-07-16T10:56:52;95308.59;;;34.07;35.67
43934;BME280;59081;42.706;23.306;2023-07-16T10:59:17;95354.19;;;34.32;36.77
43934;BME280;59081;42.706;23.306;2023-07-16T11:01:43;95322.16;;;33.90;36.22
43934;BME280;59081;42.706;23.306;2023-07-16T11:04:09;95360.38;;;34.29;36.69
43934;BME280;59081;42.706;23.306;2023-07-16T11:06:35;95350.00;;;34.60;36.54
43934;BME280;59081;42.706;23.306;2023-07-16T11:09:10;95339.41;;;34.53;36.70
43934;BME280;59081;42.706;23.306;2023-07-16T11:11:36;95320.59;;;34.50;37.20
43934;BME280;59081;42.706;23.306;2023-07-16T11:14:06;95348.91;;;34.55;36.66
43934;BME280;59081;42.706;23.306;2023-07-16T11:16:35;95333.97;;;34.47;36.82
43934;BME280;59081;42.706;23.306;2023-07-16T11:19:05;95357.69;;;34.67;35.46
43934;BME280;59081;42.706;23.306;2023-07-16T11:21:33;95348.78;;;34.09;37.48
43934;BME280;59081;42.706;23.306;2023-07-16T11:24:14;95403.09;;;34.53;36.64
43934;BME280;59081;42.706;23.306;2023-07-16T11:26:52;95305.19;;;34.18;35.23
43934;BME280;59081;42.706;23.306;2023-07-16T11:29:17;95328.16;;;34.55;35.41
43934;BME280;59081;42.706;23.306;2023-07-16T11:31:43;95256.16;;;34.49;34.29
43934;BME280;59081;42.706;23.306;2023-07-16T11:34:29;95394.16;;;35.30;33.21
43934;BME280;59081;42.706;23.306;2023-07-16T11:36:54;95350.16;;;34.62;33.79
43934;BME280;59081;42.706;23.306;2023-07-16T11:39:19;95288.25;;;34.57;33.77
43934;BME280;59081;42.706;23.306;2023-07-16T11:41:58;95389.97;;;35.50;32.92
43934;BME280;59081;42.706;23.306;2023-07-16T11:44:24;95313.44;;;35.05;33.14
43934;BME280;59081;42.706;23.306;2023-07-16T11:46:49;95321.09;;;35.58;32.94
43934;BME280;59081;42.706;23.306;2023-07-16T11:49:15;95340.28;;;35.94;32.10
43934;BME280;59081;42.706;23.306;2023-07-16T11:51:41;95346.31;;;35.98;32.10
43934;BME280;59081;42.706;23.306;2023-07-16T11:54:09;95371.50;;;36.19;31.71
43934;BME280;59081;42.706;23.306;2023-07-16T11:56:35;95280.97;;;35.39;32.17
43934;BME280;59081;42.706;23.306;2023-07-16T11:59:00;95305.06;;;35.26;33.24
43934;BME280;59081;42.706;23.306;2023-07-16T12:01:26;95303.00;;;35.46;31.80
43934;BME280;59081;42.706;23.306;2023-07-16T12:03:51;95278.66;;;35.18;31.92
43934;BME280;59081;42.706;23.306;2023-07-16T12:06:16;95358.53;;;35.99;31.42
43934;BME280;59081;42.706;23.306;2023-07-16T12:08:42;95372.19;;;35.42;31.40
43934;BME280;59081;42.706;23.306;2023-07-16T12:11:07;95351.84;;;35.02;32.11
43934;BME280;59081;42.706;23.306;2023-07-16T12:13:33;95301.13;;;34.75;32.10
43934;BME280;59081;42.706;23.306;2023-07-16T12:15:58;95293.84;;;34.92;31.59
43934;BME280;59081;42.706;23.306;2023-07-16T12:18:24;95320.91;;;35.27;32.67
43934;BME280;59081;42.706;23.306;2023-07-16T12:20:49;95284.31;;;35.45;31.40
43934;BME280;59081;42.706;23.306;2023-07-16T12:23:15;95263.94;;;35.70;31.92
43934;BME280;59081;42.706;23.306;2023-07-16T12:25:40;95290.66;;;35.82;30.17
43934;BME280;59081;42.706;23.306;2023-07-16T12:28:05;95359.09;;;36.45;30.32
43934;BME280;59081;42.706;23.306;2023-07-16T12:30:31;95288.22;;;35.98;29.44
43934;BME280;59081;42.706;23.306;2023-07-16T12:32:56;95272.25;;;35.85;30.26
43934;BME280;59081;42.706;23.306;2023-07-16T12:35:22;95286.97;;;36.30;29.64
43934;BME280;59081;42.706;23.306;2023-07-16T12:37:47;95257.25;;;36.35;28.07
43934;BME280;59081;42.706;23.306;2023-07-16T12:40:13;95244.41;;;36.26;28.59
43934;BME280;59081;42.706;23.306;2023-07-16T12:42:38;95332.13;;;37.20;27.98
43934;BME280;59081;42.706;23.306;2023-07-16T12:45:04;95313.94;;;37.27;28.71
43934;BME280;59081;42.706;23.306;2023-07-16T12:47:29;95247.47;;;36.59;28.03
43934;BME280;59081;42.706;23.306;2023-07-16T12:49:55;95274.03;;;36.59;27.37
43934;BME280;59081;42.706;23.306;2023-07-16T12:52:20;95267.13;;;35.83;28.15
43934;BME280;59081;42.706;23.306;2023-07-16T12:54:46;95285.53;;;35.80;28.22